Time;durP1;ratioP1;P1;durP2;ratioP2;P2;SDS_P1;SDS_P2;PMS_P1;PMS_P2;Temp;Humidity;BMP_temperature;BMP_pressure;BME280_temperature;BME280_humidity;BME280_pressure;Samples;Min_cycle;Max_cycle;Signal;HPM_P1;HPM_P2
2022/07/26 00:01:01;;;;;;;5.32;1.30;;;20.90;96.00;;;;;;5107240;28;20038;-34
2022/07/26 00:03:27;;;;;;;6.00;1.52;;;20.90;96.00;;;;;;5105739;28;20543;-35
2022/07/26 00:05:52;;;;;;;4.80;1.40;;;20.90;96.00;;;;;;5106688;28;20383;-35
2022/07/26 00:08:18;;;;;;;4.90;1.48;;;20.90;96.00;;;;;;5107120;28;20020;-34
2022/07/26 00:10:47;;;;;;;5.25;1.20;;;20.90;96.10;;;;;;5105737;28;20467;-34
2022/07/26 00:13:15;;;;;;;4.43;1.23;;;20.90;96.10;;;;;;5106530;28;20440;-34
2022/07/26 00:15:41;;;;;;;8.00;1.50;;;20.90;96.20;;;;;;5106980;28;20055;-34
2022/07/26 00:18:06;;;;;;;3.80;1.58;;;20.90;96.20;;;;;;5105802;28;20456;-34
2022/07/26 00:20:32;;;;;;;4.43;1.35;;;20.90;96.20;;;;;;5106040;28;20110;-34
2022/07/26 00:22:58;;;;;;;4.82;1.58;;;20.90;96.30;;;;;;5107094;28;20467;-34
2022/07/26 00:25:23;;;;;;;5.13;1.40;;;20.80;96.30;;;;;;5105106;28;20327;-34
2022/07/26 00:27:49;;;;;;;4.07;1.65;;;20.80;96.30;;;;;;5106697;28;20020;-34
2022/07/26 00:30:14;;;;;;;5.07;1.40;;;20.70;96.40;;;;;;5106031;28;20475;-35
2022/07/26 00:32:40;;;;;;;4.18;1.20;;;20.70;96.50;;;;;;5105536;28;20095;-35
2022/07/26 00:35:06;;;;;;;6.57;1.90;;;20.70;96.50;;;;;;5107150;28;20019;-35
2022/07/26 00:37:32;;;;;;;5.75;2.10;;;20.70;96.80;;;;;;5105750;28;20036;-33
2022/07/26 00:39:58;;;;;;;7.70;1.67;;;20.70;96.50;;;;;;5106039;28;20084;-34
2022/07/26 00:42:23;;;;;;;5.32;1.67;;;20.70;96.70;;;;;;5105506;28;20038;-34
2022/07/26 00:44:49;;;;;;;4.38;1.17;;;20.70;96.70;;;;;;5106807;28;20020;-34
2022/07/26 00:47:15;;;;;;;3.30;1.10;;;20.60;96.70;;;;;;5105264;28;20480;-35
2022/07/26 00:49:41;;;;;;;3.00;1.30;;;20.70;96.80;;;;;;5105849;28;20016;-35
2022/07/26 00:52:08;;;;;;;3.75;1.13;;;20.60;96.80;;;;;;5105842;28;20733;-35
2022/07/26 00:54:35;;;;;;;3.85;1.13;;;20.60;96.80;;;;;;5104528;28;20032;-36
2022/07/26 00:57:00;;;;;;;4.95;1.30;;;20.60;96.90;;;;;;5106022;28;20030;-35
2022/07/26 00:59:26;;;;;;;3.60;1.20;;;20.60;96.90;;;;;;5104580;28;20012;-36
2022/07/26 01:01:52;;;;;;;5.00;1.35;;;20.60;97.00;;;;;;5105641;28;20050;-34
2022/07/26 01:04:17;;;;;;;3.13;1.23;;;20.60;97.00;;;;;;5105641;28;20019;-35
2022/07/26 01:06:43;;;;;;;3.50;1.23;;;20.60;97.00;;;;;;5104134;28;20051;-34
2022/07/26 01:09:10;;;;;;;2.65;1.10;;;20.50;97.00;;;;;;5106025;28;20035;-34
2022/07/26 01:11:35;;;;;;;2.42;1.20;;;20.50;97.10;;;;;;5105873;28;20027;-33
2022/07/26 01:14:01;;;;;;;3.25;1.50;;;20.50;97.10;;;;;;5105106;28;20503;-34
2022/07/26 01:16:26;;;;;;;4.20;1.20;;;20.50;97.10;;;;;;5105314;28;20047;-34
2022/07/26 01:18:52;;;;;;;5.40;1.30;;;20.50;97.20;;;;;;5104919;28;20106;-34
2022/07/26 01:21:18;;;;;;;3.28;1.30;;;20.50;97.20;;;;;;5104200;28;20065;-34
2022/07/26 01:23:43;;;;;;;5.47;1.35;;;20.50;97.20;;;;;;5105634;28;20110;-35
2022/07/26 01:26:10;;;;;;;2.70;1.30;;;20.40;97.30;;;;;;5105127;28;20039;-35
2022/07/26 01:28:36;;;;;;;4.40;1.33;;;20.40;97.30;;;;;;5103842;28;20027;-34
2022/07/26 01:31:03;;;;;;;4.45;1.33;;;20.40;97.40;;;;;;5105023;28;20031;-34
2022/07/26 01:33:28;;;;;;;5.93;1.35;;;20.40;97.50;;;;;;5104806;28;20162;-35
2022/07/26 01:35:54;;;;;;;4.70;2.20;;;20.30;97.50;;;;;;5104730;28;20568;-36
2022/07/26 01:38:19;;;;;;;4.00;1.52;;;20.30;97.60;;;;;;5105272;28;20031;-35
2022/07/26 01:40:45;;;;;;;3.92;1.50;;;20.20;97.60;;;;;;5105479;28;20486;-35
2022/07/26 01:43:11;;;;;;;5.63;1.20;;;20.20;97.70;;;;;;5104426;28;20542;-35
2022/07/26 01:45:36;;;;;;;3.72;1.30;;;20.10;97.80;;;;;;5104913;28;20035;-35
2022/07/26 01:48:02;;;;;;;3.58;1.27;;;20.10;97.90;;;;;;5105058;28;20126;-35
2022/07/26 01:50:27;;;;;;;3.05;1.10;;;20.00;97.90;;;;;;5103211;28;20115;-36
2022/07/26 01:52:53;;;;;;;5.50;1.25;;;20.00;98.00;;;;;;5105867;28;20072;-35
2022/07/26 01:55:18;;;;;;;4.30;1.40;;;20.00;98.00;;;;;;5104689;28;20480;-34
2022/07/26 01:57:45;;;;;;;3.63;1.60;;;19.90;98.10;;;;;;5104871;28;20032;-35
2022/07/26 02:00:11;;;;;;;4.85;1.33;;;19.90;98.20;;;;;;5105999;28;20571;-35
2022/07/26 02:02:37;;;;;;;5.65;1.35;;;19.90;98.20;;;;;;5109228;28;20030;-35
2022/07/26 02:05:04;;;;;;;4.22;1.33;;;19.80;98.30;;;;;;5108429;28;20032;-34
2022/07/26 02:07:32;;;;;;;6.50;1.35;;;19.80;98.30;;;;;;5088287;28;20024;-34
2022/07/26 02:09:58;;;;;;;4.63;1.98;;;19.80;98.40;;;;;;5103161;28;20106;-35
2022/07/26 02:12:24;;;;;;;4.18;1.35;;;19.70;98.60;;;;;;5108679;28;20395;-35
2022/07/26 02:14:50;;;;;;;5.60;1.50;;;19.70;98.60;;;;;;5108979;28;20027;-33
2022/07/26 02:17:16;;;;;;;4.45;1.50;;;19.70;98.70;;;;;;5108384;28;20447;-35
2022/07/26 02:19:42;;;;;;;4.70;1.75;;;19.70;98.80;;;;;;5108059;28;20020;-35
2022/07/26 02:22:08;;;;;;;5.45;1.60;;;19.70;98.80;;;;;;5109640;28;20475;-35
2022/07/26 02:24:33;;;;;;;5.20;1.35;;;19.60;98.90;;;;;;5107030;28;20387;-35
2022/07/26 02:27:00;;;;;;;4.57;1.70;;;19.60;99.00;;;;;;5109229;28;20114;-36
2022/07/26 02:29:26;;;;;;;5.93;1.80;;;19.60;99.30;;;;;;5108082;28;20031;-35
2022/07/26 02:31:53;;;;;;;7.80;2.17;;;19.60;99.40;;;;;;5107648;28;20435;-34
2022/07/26 02:34:19;;;;;;;3.80;1.90;;;19.60;99.60;;;;;;5108249;28;20577;-34
2022/07/26 02:36:45;;;;;;;5.82;1.92;;;19.60;99.60;;;;;;5108551;28;20031;-34
2022/07/26 02:39:11;;;;;;;5.22;1.95;;;19.60;99.80;;;;;;5108520;28;20054;-35
2022/07/26 02:41:37;;;;;;;7.45;1.50;;;19.60;99.80;;;;;;5108470;28;20067;-35
2022/07/26 02:44:03;;;;;;;4.47;2.10;;;19.60;99.90;;;;;;5108994;28;20603;-35
2022/07/26 02:46:28;;;;;;;3.95;1.75;;;19.60;99.90;;;;;;5106665;28;20046;-35
2022/07/26 02:48:54;;;;;;;3.83;1.70;;;19.60;99.90;;;;;;5108426;28;20024;-35
2022/07/26 02:51:19;;;;;;;4.18;1.80;;;19.60;99.90;;;;;;5108135;28;20034;-34
2022/07/26 02:53:45;;;;;;;2.35;1.40;;;19.60;99.90;;;;;;5107587;28;20027;-34
2022/07/26 02:56:10;;;;;;;4.47;1.92;;;19.60;99.90;;;;;;5108004;28;20028;-34
2022/07/26 02:58:36;;;;;;;3.60;1.55;;;19.60;99.90;;;;;;5107616;28;20024;-34
2022/07/26 03:01:02;;;;;;;3.72;2.10;;;19.70;99.90;;;;;;5107188;28;20035;-33
2022/07/26 03:03:28;;;;;;;3.22;1.65;;;19.60;99.90;;;;;;5106268;28;20020;-34
2022/07/26 03:05:53;;;;;;;4.95;1.70;;;19.70;99.90;;;;;;5103911;28;20039;-35
2022/07/26 03:08:19;;;;;;;4.63;1.70;;;19.70;99.90;;;;;;5106814;28;20092;-33
2022/07/26 03:10:45;;;;;;;6.35;1.67;;;19.70;99.90;;;;;;5107946;28;20039;-35
2022/07/26 03:13:10;;;;;;;4.05;1.83;;;19.70;99.90;;;;;;5106225;28;20019;-35
2022/07/26 03:15:36;;;;;;;5.28;1.60;;;19.70;99.90;;;;;;5107285;28;20561;-35
2022/07/26 03:18:01;;;;;;;4.80;1.75;;;19.70;99.90;;;;;;5108278;28;20031;-35
2022/07/26 03:20:27;;;;;;;3.92;1.65;;;19.70;99.90;;;;;;5106034;28;20592;-34
2022/07/26 03:22:52;;;;;;;5.03;1.70;;;19.70;99.90;;;;;;5107382;28;20028;-34
2022/07/26 03:25:18;;;;;;;3.70;1.90;;;19.70;99.90;;;;;;5107451;28;20164;-33
2022/07/26 03:27:44;;;;;;;3.22;1.38;;;19.70;99.90;;;;;;5106603;28;20035;-35
2022/07/26 03:30:10;;;;;;;4.10;1.60;;;19.70;99.90;;;;;;5107601;28;20117;-34
2022/07/26 03:32:35;;;;;;;2.28;1.58;;;19.80;99.90;;;;;;5106712;28;20027;-34
2022/07/26 03:35:01;;;;;;;2.33;1.40;;;19.70;99.90;;;;;;5107106;28;20024;-35
2022/07/26 03:37:27;;;;;;;4.90;1.85;;;19.70;99.90;;;;;;5107042;28;20036;-35
2022/07/26 03:39:52;;;;;;;4.05;1.70;;;19.70;99.90;;;;;;5108687;28;20483;-36
2022/07/26 03:42:18;;;;;;;5.28;1.55;;;19.70;99.90;;;;;;5106443;28;20716;-34
2022/07/26 03:44:43;;;;;;;6.00;2.10;;;19.70;99.90;;;;;;5107024;28;20027;-36
2022/07/26 03:47:09;;;;;;;5.07;1.70;;;19.70;99.90;;;;;;5107063;28;20519;-35
2022/07/26 03:49:34;;;;;;;5.53;2.03;;;19.60;99.90;;;;;;5106145;28;20383;-35
2022/07/26 03:52:00;;;;;;;3.47;1.73;;;19.60;99.90;;;;;;5107033;28;20589;-35
2022/07/26 03:54:25;;;;;;;3.70;1.83;;;19.50;99.90;;;;;;5106111;28;20106;-35
2022/07/26 03:56:51;;;;;;;3.58;1.70;;;19.50;99.90;;;;;;5106678;28;20035;-34
2022/07/26 03:59:17;;;;;;;7.13;2.00;;;19.50;99.90;;;;;;5107177;28;20028;-35
2022/07/26 04:01:44;;;;;;;7.15;2.10;;;19.40;99.90;;;;;;5107212;28;20439;-35
2022/07/26 04:04:11;;;;;;;4.45;1.58;;;19.40;99.90;;;;;;5106259;28;20475;-35
2022/07/26 04:06:38;;;;;;;3.35;1.77;;;19.40;99.90;;;;;;5106510;28;20027;-35
2022/07/26 04:09:05;;;;;;;5.40;1.90;;;19.30;99.90;;;;;;5106889;28;20028;-35
2022/07/26 04:11:31;;;;;;;4.65;2.15;;;19.20;99.90;;;;;;5105368;28;20066;-35
2022/07/26 04:13:57;;;;;;;3.28;1.65;;;19.20;99.90;;;;;;5106683;28;20078;-34
2022/07/26 04:16:23;;;;;;;5.60;2.35;;;19.20;99.90;;;;;;5105716;28;20023;-35
2022/07/26 04:18:48;;;;;;;3.70;1.85;;;19.20;99.90;;;;;;5107341;28;20175;-34
2022/07/26 04:21:14;;;;;;;3.80;2.08;;;19.20;99.90;;;;;;5106600;28;20072;-34
2022/07/26 04:23:39;;;;;;;4.07;1.83;;;19.10;99.90;;;;;;5105096;28;20028;-34
2022/07/26 04:26:05;;;;;;;3.63;1.92;;;19.10;99.90;;;;;;5106304;28;20051;-34
2022/07/26 04:28:31;;;;;;;4.32;1.90;;;19.10;99.90;;;;;;5105694;28;20030;-35
2022/07/26 04:30:57;;;;;;;4.15;1.70;;;19.20;99.90;;;;;;5095024;28;20019;-35
2022/07/26 04:33:24;;;;;;;3.65;1.70;;;19.20;99.90;;;;;;5105899;28;20513;-34
2022/07/26 04:35:49;;;;;;;3.38;2.03;;;19.10;99.90;;;;;;5106632;28;20653;-34
2022/07/26 04:38:15;;;;;;;3.42;1.70;;;19.10;99.90;;;;;;5105511;28;20114;-34
2022/07/26 04:40:41;;;;;;;4.00;1.67;;;19.10;99.90;;;;;;5106592;28;20020;-35
2022/07/26 04:43:07;;;;;;;4.70;1.50;;;19.10;99.90;;;;;;5106669;28;20111;-34
2022/07/26 04:45:32;;;;;;;4.28;2.00;;;19.10;99.90;;;;;;5104643;28;20473;-34
2022/07/26 04:47:58;;;;;;;7.03;1.90;;;19.10;99.90;;;;;;5106348;28;20051;-35
2022/07/26 04:50:26;;;;;;;4.70;1.63;;;19.00;99.90;;;;;;5105844;28;20140;-34
2022/07/26 04:52:52;;;;;;;3.88;1.60;;;19.00;99.90;;;;;;5105220;28;20080;-34
2022/07/26 04:55:18;;;;;;;5.47;2.00;;;19.00;99.90;;;;;;5105802;28;20035;-34
2022/07/26 04:57:44;;;;;;;4.75;1.52;;;19.00;99.90;;;;;;5105958;28;20046;-34
2022/07/26 05:00:12;;;;;;;4.25;1.95;;;19.00;99.90;;;;;;5104544;28;20443;-34
2022/07/26 05:02:38;;;;;;;3.83;1.70;;;19.00;99.90;;;;;;5105221;28;20462;-35
2022/07/26 05:05:07;;;;;;;3.78;1.60;;;19.00;99.90;;;;;;5105647;28;20034;-35
2022/07/26 05:07:46;;;;;;;4.70;1.92;;;19.10;99.90;;;;;;5104492;28;20062;-33
2022/07/26 05:10:13;;;;;;;2.65;1.50;;;19.10;99.90;;;;;;5105733;28;20031;-35
2022/07/26 05:12:38;;;;;;;4.57;2.15;;;19.20;99.90;;;;;;5104564;28;20035;-35
2022/07/26 05:15:07;;;;;;;4.40;1.85;;;19.20;99.90;;;;;;5106157;28;20250;-36
2022/07/26 05:17:32;;;;;;;4.55;1.77;;;19.20;99.90;;;;;;5094071;28;20538;-34
2022/07/26 05:19:59;;;;;;;2.92;1.52;;;19.20;99.90;;;;;;5104767;28;20138;-35
2022/07/26 05:22:24;;;;;;;3.72;1.50;;;19.30;99.90;;;;;;5104719;28;20427;-35
2022/07/26 05:24:50;;;;;;;3.88;1.60;;;19.30;99.90;;;;;;5105400;28;20602;-34
2022/07/26 05:27:15;;;;;;;3.92;1.60;;;19.30;99.90;;;;;;5104293;28;20084;-35
2022/07/26 05:29:41;;;;;;;2.92;1.33;;;19.30;99.90;;;;;;5105265;28;20077;-34
2022/07/26 05:32:06;;;;;;;3.85;1.60;;;19.30;99.90;;;;;;5105038;28;20024;-34
2022/07/26 05:34:32;;;;;;;3.38;1.65;;;19.30;99.90;;;;;;5103814;28;20436;-35
2022/07/26 05:36:57;;;;;;;3.63;1.30;;;19.40;99.90;;;;;;5105135;28;20026;-35
2022/07/26 05:39:23;;;;;;;3.22;1.50;;;19.40;99.90;;;;;;5105379;28;20102;-35
2022/07/26 05:41:48;;;;;;;4.65;1.50;;;19.40;99.90;;;;;;5104057;28;20023;-34
2022/07/26 05:44:14;;;;;;;3.95;1.73;;;19.50;99.90;;;;;;5105478;28;20031;-35
2022/07/26 05:46:40;;;;;;;4.80;1.67;;;19.60;99.90;;;;;;5104135;28;20042;-35
2022/07/26 05:49:06;;;;;;;3.33;1.45;;;19.70;99.90;;;;;;5104670;28;20105;-35
2022/07/26 05:51:31;;;;;;;4.32;1.73;;;19.70;99.90;;;;;;5104723;28;20023;-35
2022/07/26 05:53:57;;;;;;;2.25;1.50;;;19.80;99.90;;;;;;5105463;28;20020;-34
2022/07/26 05:56:24;;;;;;;4.68;1.50;;;19.90;99.90;;;;;;5104139;28;20028;-34
2022/07/26 05:58:49;;;;;;;4.00;1.27;;;19.90;99.90;;;;;;5104687;28;20421;-34
2022/07/26 06:01:15;;;;;;;5.15;1.65;;;20.10;99.90;;;;;;5104446;28;20039;-34
2022/07/26 06:03:41;;;;;;;2.55;1.48;;;20.20;99.90;;;;;;5104629;28;20032;-34
2022/07/26 06:06:06;;;;;;;2.15;1.20;;;20.30;99.90;;;;;;5105005;28;20035;-34
2022/07/26 06:08:33;;;;;;;3.58;1.33;;;20.30;99.90;;;;;;5103973;28;20607;-35
2022/07/26 06:10:59;;;;;;;4.10;1.15;;;20.30;99.90;;;;;;5104653;28;20026;-35
2022/07/26 06:13:24;;;;;;;2.92;1.20;;;20.30;99.90;;;;;;5104192;28;20028;-41
2022/07/26 06:15:50;;;;;;;2.03;1.38;;;20.40;99.90;;;;;;5105244;28;20542;-34
2022/07/26 06:18:16;;;;;;;3.10;1.40;;;20.40;99.90;;;;;;5103967;28;20538;-35
2022/07/26 06:20:43;;;;;;;2.50;1.08;;;20.40;99.90;;;;;;5104545;28;20043;-34
2022/07/26 06:23:10;;;;;;;2.78;1.20;;;20.40;99.90;;;;;;5103893;28;20035;-34
2022/07/26 06:25:35;;;;;;;6.13;1.55;;;20.40;99.90;;;;;;5103942;28;20051;-35
2022/07/26 06:28:02;;;;;;;5.25;1.17;;;20.40;99.90;;;;;;5104522;28;20303;-35
2022/07/26 06:30:28;;;;;;;3.55;1.20;;;20.30;99.90;;;;;;5103543;28;20084;-36
2022/07/26 06:32:54;;;;;;;1.45;1.00;;;20.40;99.90;;;;;;5105061;28;20104;-33
2022/07/26 06:35:20;;;;;;;3.30;0.93;;;20.40;99.90;;;;;;5104399;28;20074;-34
2022/07/26 06:37:46;;;;;;;3.05;1.10;;;20.40;99.90;;;;;;5103250;28;20518;-35
2022/07/26 06:40:11;;;;;;;1.35;0.90;;;20.30;99.90;;;;;;5104691;28;20186;-35
2022/07/26 06:42:37;;;;;;;1.77;0.93;;;20.30;99.90;;;;;;5104232;28;20043;-35
2022/07/26 06:45:03;;;;;;;2.05;1.13;;;20.40;99.90;;;;;;5104310;28;20031;-36
2022/07/26 06:47:29;;;;;;;2.35;1.00;;;20.30;99.90;;;;;;5106255;28;20549;-35
2022/07/26 06:49:55;;;;;;;2.38;1.20;;;20.40;99.90;;;;;;5108294;28;20184;-35
2022/07/26 06:52:20;;;;;;;2.70;1.10;;;20.40;99.90;;;;;;5107572;28;20028;-35
2022/07/26 06:54:46;;;;;;;3.50;1.10;;;20.40;99.90;;;;;;5107446;28;20062;-35
2022/07/26 06:57:12;;;;;;;1.92;1.20;;;20.40;99.90;;;;;;5108434;28;20028;-34
2022/07/26 06:59:37;;;;;;;2.05;0.95;;;20.40;99.90;;;;;;5107269;28;20379;-35
2022/07/26 07:02:03;;;;;;;1.23;1.10;;;20.50;99.90;;;;;;5108107;28;20036;-34
2022/07/26 07:04:30;;;;;;;1.30;0.88;;;20.50;99.90;;;;;;5107841;28;20054;-35
2022/07/26 07:07:01;;;;;;;2.25;1.13;;;20.50;99.90;;;;;;5107252;28;20032;-35
2022/07/26 07:09:30;;;;;;;3.05;1.20;;;20.40;99.90;;;;;;5107338;28;20490;-35
2022/07/26 07:11:55;;;;;;;3.10;1.20;;;20.30;99.90;;;;;;5107954;28;20383;-35
2022/07/26 07:14:21;;;;;;;1.33;0.98;;;20.10;99.90;;;;;;5106815;28;20023;-35
2022/07/26 07:16:46;;;;;;;1.38;0.80;;;19.70;99.90;;;;;;5107679;28;20027;-35
2022/07/26 07:19:12;;;;;;;2.33;1.00;;;19.20;99.90;;;;;;5108024;28;20110;-36
2022/07/26 07:21:38;;;;;;;3.08;1.20;;;18.80;99.90;;;;;;5106881;28;20034;-36
2022/07/26 07:24:04;;;;;;;1.60;0.90;;;18.60;99.90;;;;;;5107964;28;20035;-35
2022/07/26 07:26:30;;;;;;;1.33;0.52;;;18.50;99.90;;;;;;5106489;28;20055;-34
2022/07/26 07:28:56;;;;;;;1.48;1.10;;;18.50;99.90;;;;;;5107881;28;20069;-35
2022/07/26 07:31:22;;;;;;;1.88;0.80;;;18.40;99.90;;;;;;5107357;28;20319;-34
2022/07/26 07:33:48;;;;;;;2.08;1.00;;;18.30;99.90;;;;;;5106790;28;20054;-36
2022/07/26 07:36:14;;;;;;;2.70;1.20;;;18.30;99.90;;;;;;5106963;28;20487;-35
2022/07/26 07:38:39;;;;;;;3.28;1.00;;;18.30;99.90;;;;;;5107110;28;20481;-35
2022/07/26 07:41:05;;;;;;;4.88;1.70;;;18.30;99.90;;;;;;5106824;28;20502;-37
2022/07/26 07:43:30;;;;;;;2.95;1.50;;;18.30;99.90;;;;;;5107415;28;20028;-35
2022/07/26 07:45:56;;;;;;;4.43;1.50;;;18.30;99.90;;;;;;5107217;28;20075;-35
2022/07/26 07:48:21;;;;;;;2.28;1.10;;;18.30;99.90;;;;;;5106654;28;20244;-34
2022/07/26 07:50:47;;;;;;;3.50;1.40;;;18.30;99.90;;;;;;5106657;28;20020;-35
2022/07/26 07:53:12;;;;;;;4.18;1.20;;;18.40;99.90;;;;;;5106718;28;20526;-36
2022/07/26 07:55:38;;;;;;;4.43;1.55;;;18.50;99.90;;;;;;5105689;28;20031;-36
2022/07/26 07:58:04;;;;;;;3.63;1.45;;;18.50;99.90;;;;;;5106955;28;20020;-36
2022/07/26 08:00:29;;;;;;;3.55;1.13;;;18.50;99.90;;;;;;5106575;28;20037;-36
2022/07/26 08:02:55;;;;;;;3.28;1.20;;;18.50;99.90;;;;;;5106080;28;20069;-36
2022/07/26 08:05:20;;;;;;;2.58;1.10;;;18.40;99.90;;;;;;5106341;28;20487;-36
2022/07/26 08:07:46;;;;;;;2.55;1.10;;;18.50;99.90;;;;;;5102833;28;20479;-35
2022/07/26 08:10:12;;;;;;;2.15;0.90;;;18.50;99.90;;;;;;5106419;28;20028;-36
2022/07/26 08:12:38;;;;;;;2.83;1.27;;;18.50;99.90;;;;;;5106109;28;20023;-34
2022/07/26 08:15:04;;;;;;;1.58;1.00;;;18.40;99.90;;;;;;5107453;28;20515;-35
2022/07/26 08:17:30;;;;;;;1.10;0.70;;;18.30;99.90;;;;;;5105072;28;20035;-35
2022/07/26 08:19:56;;;;;;;0.93;0.65;;;18.20;99.90;;;;;;5106733;28;20020;-35
2022/07/26 08:22:21;;;;;;;0.82;0.45;;;18.10;99.90;;;;;;5106230;28;20012;-36
2022/07/26 08:24:47;;;;;;;1.08;0.60;;;18.10;99.90;;;;;;5105050;28;20047;-34
2022/07/26 08:27:13;;;;;;;0.75;0.63;;;18.20;99.90;;;;;;5106142;28;20031;-34
2022/07/26 08:29:39;;;;;;;1.88;0.70;;;18.10;99.90;;;;;;5105047;28;20038;-35
2022/07/26 08:32:05;;;;;;;1.25;0.63;;;18.10;99.90;;;;;;5106046;28;20026;-36
2022/07/26 08:34:31;;;;;;;1.40;0.70;;;18.00;99.90;;;;;;5105704;28;20032;-38
2022/07/26 08:36:57;;;;;;;0.88;0.60;;;18.10;99.90;;;;;;5105539;28;20494;-36
2022/07/26 08:39:22;;;;;;;1.13;0.60;;;18.10;99.90;;;;;;5105733;28;20020;-36
2022/07/26 08:41:48;;;;;;;1.40;0.73;;;18.20;99.90;;;;;;5106067;28;20076;-35
2022/07/26 08:44:13;;;;;;;1.52;0.80;;;18.20;99.90;;;;;;5105770;28;20020;-36
2022/07/26 08:46:40;;;;;;;1.50;0.70;;;18.30;99.90;;;;;;5105796;28;20047;-37
2022/07/26 08:49:08;;;;;;;2.15;1.02;;;18.40;99.90;;;;;;5106012;28;20431;-36
2022/07/26 08:51:44;;;;;;;1.58;0.73;;;18.60;99.90;;;;;;5104847;28;20024;-36
2022/07/26 08:54:11;;;;;;;1.95;0.80;;;18.60;99.90;;;;;;5106634;28;20062;-35
2022/07/26 08:56:41;;;;;;;0.75;0.60;;;18.70;99.90;;;;;;5105451;28;20119;-36
2022/07/26 08:59:15;;;;;;;1.33;0.65;;;18.80;99.90;;;;;;5105711;28;20030;-35
2022/07/26 09:01:58;;;;;;;1.02;0.70;;;19.00;99.90;;;;;;5106356;28;20034;-35
2022/07/26 09:04:30;;;;;;;2.63;1.10;;;19.00;99.90;;;;;;5105788;28;20028;-38
2022/07/26 09:07:11;;;;;;;1.05;0.70;;;19.10;99.90;;;;;;5105231;28;20433;-36
2022/07/26 09:10:01;;;;;;;2.53;0.90;;;19.10;99.90;;;;;;5104662;28;20019;-36
2022/07/26 09:12:28;;;;;;;1.38;0.60;;;19.20;99.90;;;;;;5105124;28;20032;-37
2022/07/26 09:14:55;;;;;;;0.63;0.50;;;19.20;99.90;;;;;;5105796;28;20030;-36
2022/07/26 09:17:23;;;;;;;1.55;0.70;;;19.20;99.90;;;;;;5106256;28;20032;-35
2022/07/26 09:20:05;;;;;;;1.08;0.55;;;19.20;99.90;;;;;;5104921;28;20334;-35
2022/07/26 09:22:31;;;;;;;2.50;0.60;;;19.30;99.90;;;;;;5105823;28;20024;-35
2022/07/26 09:24:57;;;;;;;1.70;0.60;;;19.40;99.90;;;;;;5105428;28;20066;-35
2022/07/26 09:27:23;;;;;;;1.50;0.57;;;19.50;99.90;;;;;;5104793;28;20028;-35
2022/07/26 09:29:50;;;;;;;1.85;0.50;;;19.50;99.90;;;;;;5106030;28;20035;-40
2022/07/26 09:32:22;;;;;;;0.75;0.40;;;19.50;99.90;;;;;;5105860;28;20197;-36
2022/07/26 09:35:07;;;;;;;1.33;0.60;;;19.50;99.90;;;;;;5104374;28;20023;-36
2022/07/26 09:37:42;;;;;;;0.80;0.30;;;19.40;99.90;;;;;;5091420;28;20111;-37
2022/07/26 09:40:13;;;;;;;1.52;0.50;;;19.30;99.90;;;;;;5104925;28;20027;-36
2022/07/26 09:42:54;;;;;;;1.00;0.52;;;19.20;99.90;;;;;;5105408;28;20055;-35
2022/07/26 09:45:20;;;;;;;1.02;0.32;;;19.10;99.90;;;;;;5105118;28;20475;-37
2022/07/26 09:47:45;;;;;;;1.77;0.30;;;19.10;99.90;;;;;;5104715;28;20036;-37
2022/07/26 09:50:20;;;;;;;1.75;0.40;;;19.20;99.90;;;;;;5105245;28;20015;-36
2022/07/26 09:53:06;;;;;;;1.15;0.35;;;19.30;99.90;;;;;;5104802;28;20563;-35
2022/07/26 09:55:44;;;;;;;1.35;0.50;;;19.40;99.90;;;;;;5104056;28;20512;-34
2022/07/26 09:58:14;;;;;;;1.52;0.40;;;19.40;99.90;;;;;;5105591;28;20028;-35
2022/07/26 10:00:41;;;;;;;0.80;0.40;;;19.50;99.90;;;;;;5104420;28;20443;-36
2022/07/26 10:03:06;;;;;;;1.17;0.40;;;19.50;99.90;;;;;;5104073;28;20025;-36
2022/07/26 10:05:32;;;;;;;3.45;0.50;;;19.50;99.90;;;;;;5104781;28;20509;-36
2022/07/26 10:07:59;;;;;;;1.17;0.43;;;19.60;99.90;;;;;;5105086;28;20056;-35
2022/07/26 10:10:32;;;;;;;2.42;0.60;;;19.70;99.90;;;;;;5103691;28;20024;-35
2022/07/26 10:13:01;;;;;;;0.77;0.43;;;19.70;99.90;;;;;;5105340;28;20713;-36
2022/07/26 10:15:45;;;;;;;2.10;0.65;;;19.90;99.90;;;;;;5103193;28;20365;-36
2022/07/26 10:18:42;;;;;;;1.63;0.77;;;20.00;99.90;;;;;;5105219;28;20032;-35
2022/07/26 10:21:19;;;;;;;1.50;0.52;;;20.00;99.90;;;;;;5104804;28;20072;-35
2022/07/26 10:23:46;;;;;;;1.20;0.40;;;19.90;99.90;;;;;;5107684;28;20483;-35
2022/07/26 10:26:32;;;;;;;1.13;0.40;;;19.70;99.90;;;;;;5108985;28;20226;-37
2022/07/26 10:29:15;;;;;;;1.30;0.30;;;19.20;99.90;;;;;;5090819;28;20036;-35
2022/07/26 10:31:45;;;;;;;0.63;0.40;;;18.90;99.90;;;;;;5108097;28;20034;-36
2022/07/26 10:34:27;;;;;;;1.42;0.30;;;18.70;99.90;;;;;;5109088;28;20046;-36
2022/07/26 10:37:08;;;;;;;2.67;0.50;;;18.60;99.90;;;;;;5107552;28;20036;-36
2022/07/26 10:39:35;;;;;;;2.05;0.50;;;18.60;99.90;;;;;;5107962;28;20032;-36
2022/07/26 10:42:06;;;;;;;0.90;0.40;;;18.60;99.90;;;;;;5108977;28;20097;-37
2022/07/26 10:44:45;;;;;;;1.52;0.30;;;18.70;99.90;;;;;;5107634;28;20088;-36
2022/07/26 10:47:14;;;;;;;0.60;0.47;;;18.80;99.90;;;;;;5108583;28;20074;-37
2022/07/26 10:49:57;;;;;;;1.52;0.52;;;18.90;99.90;;;;;;5108659;28;20023;-35
2022/07/26 10:52:25;;;;;;;;;;;19.00;99.90;;;;;;5107943;28;20120;-36
2022/07/26 10:54:59;;;;;;;1.05;0.50;;;19.00;99.90;;;;;;5108592;28;20230;-36
2022/07/26 10:57:28;;;;;;;1.40;0.50;;;19.10;99.90;;;;;;5107097;28;20073;-36
2022/07/26 10:59:56;;;;;;;1.35;0.60;;;19.10;99.90;;;;;;5108306;28;20034;-36
2022/07/26 11:02:25;;;;;;;0.75;0.40;;;19.20;99.90;;;;;;5107571;28;20030;-35
2022/07/26 11:05:01;;;;;;;1.92;0.43;;;19.30;99.90;;;;;;5107009;28;20023;-35
2022/07/26 11:07:30;;;;;;;2.47;0.70;;;19.50;99.90;;;;;;5107392;28;20074;-35
2022/07/26 11:09:57;;;;;;;2.80;0.85;;;19.60;99.90;;;;;;5108415;28;20023;-36
2022/07/26 11:12:23;;;;;;;3.15;0.93;;;19.80;99.90;;;;;;5107000;28;20034;-36
2022/07/26 11:14:50;;;;;;;1.95;0.90;;;20.10;99.90;;;;;;5108144;28;20028;-35
2022/07/26 11:17:29;;;;;;;2.67;0.73;;;20.20;99.90;;;;;;5108367;28;20100;-35
2022/07/26 11:19:56;;;;;;;2.63;0.95;;;20.30;99.90;;;;;;5107920;28;20062;-36
2022/07/26 11:22:30;;;;;;;1.10;0.70;;;20.40;99.90;;;;;;5107764;28;20028;-37
2022/07/26 11:24:56;;;;;;;1.95;0.60;;;20.60;99.90;;;;;;5108343;28;20086;-36
2022/07/26 11:27:21;;;;;;;1.42;0.65;;;20.70;99.90;;;;;;5107083;28;20050;-35
2022/07/26 11:29:47;;;;;;;1.60;0.60;;;20.80;99.90;;;;;;5107356;28;20080;-35
2022/07/26 11:32:18;;;;;;;2.75;0.80;;;20.90;99.90;;;;;;5108117;28;20606;-36
2022/07/26 11:34:44;;;;;;;1.63;0.67;;;21.00;99.90;;;;;;5102526;28;20024;-36
2022/07/26 11:37:10;;;;;;;1.23;0.50;;;21.10;99.90;;;;;;5107445;28;20431;-37
2022/07/26 11:39:35;;;;;;;1.27;0.70;;;21.30;99.90;;;;;;5106844;28;20020;-36
2022/07/26 11:42:10;;;;;;;2.05;0.63;;;21.40;99.90;;;;;;5107342;28;20030;-38
2022/07/26 11:44:36;;;;;;;2.40;0.50;;;21.50;99.90;;;;;;5107211;28;20088;-37
2022/07/26 11:47:20;;;;;;;2.30;0.70;;;21.50;99.90;;;;;;5107306;28;20421;-34
2022/07/26 11:49:46;;;;;;;2.67;0.70;;;21.40;99.90;;;;;;5107174;28;20077;-34
2022/07/26 11:52:12;;;;;;;2.63;0.73;;;21.30;99.90;;;;;;5107606;28;20039;-36
2022/07/26 11:54:46;;;;;;;3.00;0.70;;;21.10;99.90;;;;;;5105460;28;20023;-36
2022/07/26 11:57:12;;;;;;;1.63;0.50;;;21.00;99.90;;;;;;5087414;28;20027;-36
2022/07/26 11:59:39;;;;;;;1.85;0.60;;;20.90;99.90;;;;;;5101587;28;20024;-36
2022/07/26 12:02:07;;;;;;;2.65;1.00;;;20.60;99.90;;;;;;5106508;28;20371;-37
2022/07/26 12:04:38;;;;;;;3.05;0.80;;;20.50;99.90;;;;;;5106589;28;20522;-36
2022/07/26 12:07:09;;;;;;;2.00;0.70;;;20.20;99.90;;;;;;5106936;28;20031;-36
2022/07/26 12:09:37;;;;;;;2.55;0.73;;;20.00;99.90;;;;;;5105554;28;20020;-36
2022/07/26 12:12:24;;;;;;;2.13;0.70;;;20.00;99.90;;;;;;5106855;28;20034;-36
2022/07/26 12:14:56;;;;;;;1.27;0.60;;;20.00;99.90;;;;;;5106753;28;20395;-36
2022/07/26 12:17:22;;;;;;;2.72;0.80;;;20.10;99.90;;;;;;5106443;28;20062;-36
2022/07/26 12:19:47;;;;;;;1.63;0.70;;;20.30;99.90;;;;;;5106392;28;20055;-36
2022/07/26 12:22:15;;;;;;;3.22;1.48;;;20.30;99.90;;;;;;5106050;28;20028;-36
2022/07/26 12:24:54;;;;;;;3.65;0.70;;;20.40;99.90;;;;;;5105973;28;20055;-36
2022/07/26 12:27:28;;;;;;;2.80;0.68;;;20.50;99.90;;;;;;5106188;28;20039;-36
2022/07/26 12:29:54;;;;;;;5.07;0.90;;;20.60;99.90;;;;;;5104959;28;20023;-36
2022/07/26 12:32:37;;;;;;;2.38;0.80;;;20.60;99.90;;;;;;5106740;28;20356;-36
2022/07/26 12:35:10;;;;;;;3.33;1.23;;;20.70;99.90;;;;;;5106378;28;20023;-36
2022/07/26 12:37:44;;;;;;;1.67;0.57;;;20.80;99.90;;;;;;5104949;28;20035;-35
2022/07/26 12:40:16;;;;;;;1.95;0.70;;;20.90;99.90;;;;;;5105900;28;20023;-35
2022/07/26 12:42:52;;;;;;;3.13;1.00;;;21.00;99.90;;;;;;5105589;28;20379;-35
2022/07/26 12:45:27;;;;;;;1.10;0.47;;;21.10;99.90;;;;;;5105700;28;20297;-36
2022/07/26 12:47:54;;;;;;;2.00;0.70;;;21.20;99.90;;;;;;5106679;28;20051;-34
2022/07/26 12:50:22;;;;;;;2.05;0.77;;;21.40;99.90;;;;;;5104785;28;20023;-36